createdAt,value
2022-08-09T00:00:59.123Z,23.36
2022-08-09T00:03:00.505Z,23.39
2022-08-09T00:06:15.791Z,23.41
2022-08-09T00:07:23.151Z,23.42
2022-08-09T00:09:25.822Z,23.39
2022-08-09T00:12:02.757Z,23.33
2022-08-09T00:13:49.472Z,23.29
2022-08-09T00:15:59.568Z,23.27
2022-08-09T00:18:11.633Z,23.30
2022-08-09T00:20:13.776Z,23.34
2022-08-09T00:22:16.647Z,23.38
2022-08-09T00:24:19.865Z,23.39
2022-08-09T00:26:29.837Z,23.39
2022-08-09T00:28:34.963Z,23.38
2022-08-09T00:30:36.395Z,23.38
2022-08-09T00:32:38.035Z,23.37
2022-08-09T00:34:39.739Z,23.36
2022-08-09T00:36:48.062Z,23.35
2022-08-09T00:38:50.643Z,23.35
2022-08-09T00:40:53.648Z,23.34
2022-08-09T00:44:16.717Z,23.34
2022-08-09T00:45:16.512Z,23.33
2022-08-09T00:47:21.715Z,23.33
2022-08-09T00:49:28.051Z,23.32
2022-08-09T00:51:34.001Z,23.32
2022-08-09T00:53:44.091Z,23.33
2022-08-09T00:56:04.165Z,23.33
2022-08-09T00:58:09.217Z,23.32
2022-08-09T01:00:21.969Z,23.28
2022-08-09T01:02:23.851Z,23.30
2022-08-09T01:04:25.202Z,23.30
2022-08-09T01:06:53.428Z,23.30
2022-08-09T01:08:51.649Z,23.31
2022-08-09T01:10:53.087Z,23.31
2022-08-09T01:12:54.956Z,23.35
2022-08-09T01:14:56.337Z,22.44
2022-08-09T01:16:58.199Z,21.37
2022-08-09T01:19:02.102Z,21.73
2022-08-09T01:21:06.003Z,22.27
2022-08-09T01:23:12.336Z,22.62
2022-08-09T01:25:33.391Z,22.84
2022-08-09T01:27:43.239Z,22.95
2022-08-09T01:29:54.892Z,22.98
2022-08-09T01:32:30.156Z,22.99
2022-08-09T01:34:19.122Z,23.00
2022-08-09T01:36:21.541Z,23.00
2022-08-09T01:38:23.465Z,23.03
2022-08-09T01:40:28.539Z,23.03
2022-08-09T01:42:30.124Z,23.04
2022-08-09T01:44:31.695Z,23.08
2022-08-09T01:46:33.411Z,23.11
2022-08-09T01:48:34.747Z,23.10
2022-08-09T01:50:41.921Z,23.11
2022-08-09T01:52:43.516Z,23.11
2022-08-09T01:54:44.839Z,23.10
2022-08-09T01:56:51.464Z,23.10
2022-08-09T01:58:53.247Z,23.10
2022-08-09T02:00:55.454Z,23.11
2022-08-09T02:02:57.354Z,23.10
2022-08-09T02:05:04.514Z,23.07
2022-08-09T02:07:17.995Z,23.06
2022-08-09T02:09:42.689Z,23.04
2022-08-09T02:11:44.261Z,23.08
2022-08-09T02:14:06.484Z,23.11
2022-08-09T02:16:06.861Z,23.10
2022-08-09T02:18:10.937Z,23.07
2022-08-09T02:20:15.898Z,23.08
2022-08-09T02:22:31.691Z,23.08
2022-08-09T02:24:36.376Z,23.06
2022-08-09T02:26:40.026Z,23.06
2022-08-09T02:28:44.132Z,23.06
2022-08-09T02:30:46.661Z,23.04
2022-08-09T02:32:47.963Z,23.04
2022-08-09T02:34:56.871Z,23.07
2022-08-09T02:36:59.251Z,23.08
2022-08-09T02:39:00.593Z,23.09
2022-08-09T02:41:01.951Z,23.17
2022-08-09T02:43:03.739Z,23.36
2022-08-09T02:45:07.124Z,23.25
2022-08-09T02:47:08.430Z,23.13
2022-08-09T02:49:11.191Z,23.05
2022-08-09T02:51:12.504Z,22.98
2022-08-09T02:53:17.284Z,21.18
2022-08-09T02:55:46.116Z,20.21
2022-08-09T02:57:59.987Z,20.33
2022-08-09T03:00:25.301Z,20.29
2022-08-09T03:02:31.382Z,20.17
2022-08-09T03:04:33.119Z,20.95
2022-08-09T03:06:34.414Z,21.46
2022-08-09T03:08:39.322Z,21.76
2022-08-09T03:10:42.314Z,21.94
2022-08-09T03:12:49.401Z,22.03
2022-08-09T03:14:53.595Z,22.09
2022-08-09T03:16:55.243Z,22.14
2022-08-09T03:19:01.888Z,22.14
2022-08-09T03:21:03.350Z,22.16
2022-08-09T03:23:15.271Z,22.18
2022-08-09T03:25:26.636Z,22.19
2022-08-09T03:27:46.860Z,22.18
2022-08-09T03:29:57.357Z,22.18
2022-08-09T03:32:02.167Z,22.18
2022-08-09T03:34:03.663Z,22.20
2022-08-09T03:36:13.115Z,22.18
2022-08-09T03:38:29.002Z,22.19
2022-08-09T03:40:31.827Z,21.29
2022-08-09T03:42:33.250Z,22.17
2022-08-09T03:44:35.328Z,22.17
2022-08-09T03:46:37.923Z,22.17
2022-08-09T03:48:42.883Z,22.18
2022-08-09T03:50:53.038Z,22.17
2022-08-09T03:52:54.355Z,22.16
2022-08-09T03:54:56.682Z,22.16
2022-08-09T03:56:58.355Z,22.15
2022-08-09T03:58:59.740Z,21.38
2022-08-09T04:01:01.625Z,22.15
2022-08-09T04:03:03.043Z,22.14
2022-08-09T04:05:17.316Z,22.15
2022-08-09T04:07:47.283Z,22.14
2022-08-09T04:09:53.019Z,22.13
2022-08-09T04:11:55.196Z,22.13
2022-08-09T04:14:54.273Z,22.12
2022-08-09T04:16:21.261Z,22.12
2022-08-09T04:18:24.969Z,22.12
2022-08-09T04:20:26.572Z,21.22
2022-08-09T04:22:28.071Z,22.12
2022-08-09T04:24:30.014Z,22.12
2022-08-09T04:26:35.298Z,22.12
2022-08-09T04:28:42.313Z,22.12
2022-08-09T04:30:48.091Z,22.12
2022-08-09T04:32:49.943Z,22.11
2022-08-09T04:34:54.460Z,22.11
2022-08-09T04:36:58.847Z,22.11
2022-08-09T04:39:00.207Z,22.11
2022-08-09T04:41:01.987Z,22.11
2022-08-09T04:43:03.987Z,22.11
2022-08-09T04:45:06.957Z,22.09
2022-08-09T04:47:08.313Z,22.09
2022-08-09T04:49:10.099Z,22.09
2022-08-09T04:51:16.551Z,22.09
2022-08-09T04:53:17.900Z,22.08
2022-08-09T04:55:19.438Z,22.08
2022-08-09T04:57:21.601Z,22.08
2022-08-09T04:59:25.666Z,22.07
2022-08-09T05:01:32.560Z,22.07
2022-08-09T05:03:43.221Z,22.07
2022-08-09T05:05:51.816Z,22.07
2022-08-09T05:07:54.166Z,22.07
2022-08-09T05:09:55.551Z,22.06
2022-08-09T05:11:57.235Z,22.05
2022-08-09T05:13:58.577Z,22.05
2022-08-09T05:15:59.875Z,22.06
2022-08-09T05:18:38.873Z,22.05
2022-08-09T05:20:22.761Z,22.05
2022-08-09T05:22:35.877Z,22.05
2022-08-09T05:24:52.656Z,22.04
2022-08-09T05:26:58.674Z,22.05
2022-08-09T05:29:01.313Z,22.04
2022-08-09T05:31:09.359Z,22.04
2022-08-09T05:33:11.107Z,22.04
2022-08-09T05:35:12.412Z,22.05
2022-08-09T05:37:14.592Z,22.03
2022-08-09T05:39:28.452Z,22.04
2022-08-09T05:41:31.011Z,22.04
2022-08-09T05:43:35.435Z,22.04
2022-08-09T05:45:52.471Z,22.04
2022-08-09T05:47:59.235Z,22.04
2022-08-09T05:50:23.401Z,22.05
2022-08-09T05:52:24.717Z,22.05
2022-08-09T05:54:26.313Z,21.17
2022-08-09T05:56:28.275Z,22.04
2022-08-09T05:58:29.672Z,22.03
2022-08-09T06:00:32.784Z,22.05
2022-08-09T06:02:34.879Z,22.04
2022-08-09T06:04:44.526Z,22.04
2022-08-09T06:06:49.949Z,22.04
2022-08-09T06:08:53.106Z,22.05
2022-08-09T06:10:55.384Z,22.04
2022-08-09T06:13:11.763Z,22.05
2022-08-09T06:15:14.018Z,22.05
2022-08-09T06:17:15.395Z,22.07
2022-08-09T06:19:17.798Z,22.07
2022-08-09T06:21:22.117Z,22.09
2022-08-09T06:23:23.825Z,22.10
2022-08-09T06:25:45.167Z,22.12
2022-08-09T06:27:51.862Z,22.14
2022-08-09T06:30:04.306Z,22.15
2022-08-09T06:32:17.281Z,22.16
2022-08-09T06:34:29.925Z,22.17
2022-08-09T06:36:32.176Z,22.19
2022-08-09T06:38:37.453Z,22.19
2022-08-09T06:40:39.191Z,22.21
2022-08-09T06:42:44.987Z,22.20
2022-08-09T06:44:54.087Z,22.23
2022-08-09T06:46:55.920Z,22.22
2022-08-09T06:49:00.064Z,22.24
2022-08-09T06:51:04.491Z,22.24
2022-08-09T06:53:06.546Z,22.24
2022-08-09T06:55:10.115Z,22.25
2022-08-09T06:57:14.364Z,22.25
2022-08-09T07:00:56.901Z,22.26
2022-08-09T07:01:54.087Z,22.26
2022-08-09T07:04:03.752Z,22.28
2022-08-09T07:06:05.935Z,22.27
2022-08-09T07:08:07.239Z,22.28
2022-08-09T07:10:22.624Z,22.29
2022-08-09T07:12:38.048Z,22.28
2022-08-09T07:14:42.520Z,22.30
2022-08-09T07:16:49.024Z,22.30
2022-08-09T07:18:54.859Z,22.30
2022-08-09T07:20:56.408Z,22.29
2022-08-09T07:22:58.655Z,22.31
2022-08-09T07:25:01.015Z,22.31
2022-08-09T07:27:02.552Z,22.30
2022-08-09T07:29:11.963Z,22.32
2022-08-09T07:31:14.759Z,22.32
2022-08-09T07:33:17.323Z,22.32
2022-08-09T07:35:19.129Z,22.31
2022-08-09T07:37:20.643Z,22.32
2022-08-09T07:39:40.311Z,22.31
2022-08-09T07:41:43.066Z,22.31
2022-08-09T07:43:55.766Z,22.33
2022-08-09T07:46:02.925Z,22.35
2022-08-09T07:48:05.029Z,22.38
2022-08-09T07:50:08.647Z,22.41
2022-08-09T07:52:17.452Z,22.45
2022-08-09T07:54:30.261Z,22.50
2022-08-09T07:56:33.697Z,22.52
2022-08-09T07:58:35.174Z,22.52
2022-08-09T08:00:36.812Z,22.56
2022-08-09T08:02:57.110Z,22.60
2022-08-09T08:04:59.448Z,22.62
2022-08-09T08:07:15.035Z,22.65
2022-08-09T08:09:39.764Z,21.78
2022-08-09T08:12:24.828Z,22.69
2022-08-09T08:14:06.982Z,22.71
2022-08-09T08:16:31.277Z,22.73
2022-08-09T08:18:31.460Z,22.75
2022-08-09T08:20:33.525Z,22.76
2022-08-09T08:22:35.057Z,22.77
2022-08-09T08:24:40.635Z,22.79
2022-08-09T08:26:56.173Z,22.81
2022-08-09T08:28:57.910Z,22.82
2022-08-09T08:31:00.163Z,22.82
2022-08-09T08:33:04.396Z,22.84
2022-08-09T08:35:05.883Z,22.84
2022-08-09T08:37:07.210Z,22.85
2022-08-09T08:39:17.399Z,22.87
2022-08-09T08:41:18.775Z,22.88
2022-08-09T08:43:20.126Z,22.89
2022-08-09T08:45:37.128Z,22.90
2022-08-09T08:47:42.899Z,22.90
2022-08-09T08:49:49.169Z,22.91
2022-08-09T08:52:01.653Z,22.92
2022-08-09T08:54:10.146Z,22.91
2022-08-09T08:56:28.011Z,22.93
2022-08-09T08:58:29.831Z,22.93
2022-08-09T09:00:34.428Z,22.93
2022-08-09T09:02:36.362Z,22.93
2022-08-09T09:04:47.770Z,22.95
2022-08-09T09:06:53.927Z,22.94
2022-08-09T09:08:59.725Z,22.95
2022-08-09T09:11:02.287Z,22.96
2022-08-09T09:13:09.347Z,22.96
2022-08-09T09:15:12.104Z,22.97
2022-08-09T09:17:16.382Z,22.96
2022-08-09T09:21:43.106Z,22.96
2022-08-09T09:23:57.261Z,22.96
2022-08-09T09:26:04.263Z,22.98
2022-08-09T09:28:39.000Z,22.95
2022-08-09T09:30:40.109Z,22.93
2022-08-09T09:32:42.946Z,22.88
2022-08-09T09:34:45.079Z,22.80
2022-08-09T09:36:50.895Z,22.85
2022-08-09T09:38:58.135Z,22.89
2022-08-09T09:40:59.908Z,22.91
2022-08-09T09:43:01.959Z,22.93
2022-08-09T09:45:03.427Z,22.95
2022-08-09T09:47:04.934Z,22.96
2022-08-09T09:49:06.925Z,22.97
2022-08-09T09:51:11.585Z,22.91
2022-08-09T09:53:20.326Z,22.90
2022-08-09T09:55:31.404Z,22.93
2022-08-09T09:58:02.278Z,22.95
2022-08-09T09:59:56.046Z,22.97
2022-08-09T10:01:58.420Z,22.96
2022-08-09T10:04:03.255Z,22.96
2022-08-09T10:06:10.187Z,22.98
2022-08-09T10:08:28.056Z,22.99
2022-08-09T10:10:31.544Z,22.92
2022-08-09T10:12:33.158Z,22.85
2022-08-09T10:14:34.961Z,22.91
2022-08-09T10:16:57.832Z,22.91
2022-08-09T10:18:59.882Z,22.82
2022-08-09T10:21:01.359Z,22.83
2022-08-09T10:23:03.772Z,22.90
2022-08-09T10:25:12.507Z,22.93
2022-08-09T10:27:17.205Z,22.95
2022-08-09T10:30:28.430Z,22.98
2022-08-09T10:34:32.382Z,23.01
2022-08-09T10:36:31.549Z,22.94
2022-08-09T10:38:57.202Z,22.92
2022-08-09T10:40:58.997Z,22.92
2022-08-09T10:43:01.971Z,22.85
2022-08-09T10:45:04.509Z,22.88
2022-08-09T10:48:12.377Z,22.95
2022-08-09T10:49:50.558Z,23.00
2022-08-09T10:51:55.124Z,23.02
2022-08-09T10:54:04.854Z,23.05
2022-08-09T10:56:06.495Z,23.06
2022-08-09T10:58:08.109Z,23.05
2022-08-09T11:00:10.380Z,23.03
2022-08-09T11:03:11.778Z,23.07
2022-08-09T11:04:55.534Z,22.99
2022-08-09T11:06:59.689Z,22.98
2022-08-09T11:09:16.177Z,22.93
2022-08-09T11:11:19.049Z,22.98
2022-08-09T11:13:49.370Z,23.03
2022-08-09T11:16:04.477Z,23.07
2022-08-09T11:18:04.008Z,23.05
2022-08-09T11:20:22.580Z,22.96
2022-08-09T11:22:36.514Z,23.00
2022-08-09T11:24:37.963Z,23.06
2022-08-09T11:26:39.805Z,23.09
2022-08-09T11:28:56.723Z,23.11
2022-08-09T11:30:58.533Z,23.12
2022-08-09T11:33:00.221Z,23.16
2022-08-09T11:35:02.724Z,23.16
2022-08-09T11:37:07.161Z,23.19
2022-08-09T11:39:11.137Z,23.20
2022-08-09T11:41:13.640Z,23.20
2022-08-09T11:43:15.141Z,23.21
2022-08-09T11:45:16.439Z,23.20
2022-08-09T11:47:18.088Z,23.10
2022-08-09T11:49:28.098Z,23.16
2022-08-09T11:53:02.394Z,23.22
2022-08-09T11:54:07.069Z,22.35
2022-08-09T11:56:14.487Z,23.19
2022-08-09T11:58:32.575Z,23.21
2022-08-09T12:00:36.000Z,23.25
2022-08-09T12:02:40.793Z,23.27
2022-08-09T12:04:42.405Z,23.29
2022-08-09T12:06:55.518Z,23.31
2022-08-09T12:08:57.442Z,23.32
2022-08-09T12:11:02.649Z,23.33
2022-08-09T12:14:09.692Z,23.32
2022-08-09T12:15:48.603Z,23.34
2022-08-09T12:17:51.585Z,23.37
2022-08-09T12:19:59.498Z,23.40
2022-08-09T12:22:01.216Z,23.81
2022-08-09T12:24:09.422Z,24.11
2022-08-09T12:26:11.376Z,24.31
2022-08-09T12:29:12.578Z,24.21
2022-08-09T12:30:43.696Z,24.15
2022-08-09T12:32:45.445Z,24.29
2022-08-09T12:34:49.852Z,24.50
2022-08-09T12:36:51.338Z,24.60
2022-08-09T12:39:00.685Z,24.73
2022-08-09T12:41:02.095Z,24.66
2022-08-09T12:43:03.666Z,24.62
2022-08-09T12:45:07.143Z,24.31
2022-08-09T12:47:26.322Z,24.14
2022-08-09T12:49:27.632Z,24.25
2022-08-09T12:52:00.082Z,24.50
2022-08-09T12:53:52.749Z,24.64
2022-08-09T12:56:12.305Z,24.57
2022-08-09T12:58:27.402Z,24.29
2022-08-09T13:00:32.533Z,24.10
2022-08-09T13:02:35.096Z,24.12
2022-08-09T13:04:38.614Z,23.97
2022-08-09T13:06:40.315Z,23.84
2022-08-09T13:08:46.332Z,23.73
2022-08-09T13:10:52.302Z,23.70
2022-08-09T13:13:08.727Z,23.76
2022-08-09T13:15:11.824Z,23.79
2022-08-09T13:17:13.123Z,23.78
2022-08-09T13:19:17.649Z,24.27
2022-08-09T13:22:36.719Z,24.61
2022-08-09T13:24:06.733Z,25.25
2022-08-09T13:26:05.493Z,25.38
2022-08-09T13:28:06.962Z,25.06
2022-08-09T13:30:49.308Z,24.96
2022-08-09T13:32:30.398Z,24.99
2022-08-09T13:34:33.550Z,24.96
2022-08-09T13:36:41.414Z,24.85
2022-08-09T13:38:57.625Z,24.74
2022-08-09T13:41:50.894Z,25.13
2022-08-09T13:43:21.858Z,24.41
2022-08-09T13:46:42.439Z,24.25
2022-08-09T13:47:59.233Z,24.16
2022-08-09T13:50:01.381Z,24.12
2022-08-09T13:52:02.955Z,24.09
2022-08-09T13:54:11.039Z,23.20
2022-08-09T13:56:14.884Z,24.04
2022-08-09T13:58:19.582Z,24.03
2022-08-09T14:00:20.934Z,24.01
2022-08-09T14:02:25.643Z,23.99
2022-08-09T14:04:27.471Z,23.99
2022-08-09T14:06:29.503Z,24.01
2022-08-09T14:08:33.159Z,24.02
2022-08-09T14:10:45.999Z,24.10
2022-08-09T14:12:51.594Z,24.12
2022-08-09T14:14:53.997Z,24.11
2022-08-09T14:16:58.627Z,24.06
2022-08-09T14:19:00.040Z,24.07
2022-08-09T14:21:01.456Z,23.34
2022-08-09T14:23:04.058Z,24.06
2022-08-09T14:25:05.420Z,24.05
2022-08-09T14:27:20.034Z,23.18
2022-08-09T14:30:03.999Z,24.04
2022-08-09T14:31:52.012Z,24.09
2022-08-09T14:33:54.825Z,24.22
2022-08-09T14:35:56.177Z,24.11
2022-08-09T14:38:02.433Z,23.99
2022-08-09T14:40:05.779Z,23.90
2022-08-09T14:42:07.267Z,23.81
2022-08-09T14:44:11.141Z,23.75
2022-08-09T14:46:56.604Z,23.70
2022-08-09T14:48:34.068Z,23.66
2022-08-09T14:50:36.893Z,23.92
2022-08-09T14:52:38.528Z,24.10
2022-08-09T14:54:39.847Z,24.22
2022-08-09T14:56:53.698Z,24.26
2022-08-09T14:59:00.563Z,24.32
2022-08-09T15:01:01.983Z,24.34
2022-08-09T15:03:05.577Z,24.35
2022-08-09T15:05:07.209Z,24.40
2022-08-09T15:07:10.032Z,24.47
2022-08-09T15:09:11.920Z,24.92
2022-08-09T15:11:16.488Z,24.83
2022-08-09T15:13:18.276Z,24.80
2022-08-09T15:15:20.140Z,24.76
2022-08-09T15:17:22.331Z,24.81
2022-08-09T15:19:26.722Z,24.73
2022-08-09T15:21:57.971Z,25.01
2022-08-09T15:24:09.327Z,25.04
2022-08-09T15:26:19.266Z,24.99
2022-08-09T15:28:33.380Z,24.98
2022-08-09T15:30:58.542Z,25.05
2022-08-09T15:32:56.210Z,24.97
2022-08-09T15:35:00.775Z,24.74
2022-08-09T15:37:04.340Z,24.38
2022-08-09T15:39:05.960Z,24.31
2022-08-09T15:41:09.642Z,24.53
2022-08-09T15:43:13.729Z,24.64
2022-08-09T15:45:15.362Z,24.76
2022-08-09T15:47:47.168Z,24.80
2022-08-09T15:50:00.641Z,24.76
2022-08-09T15:52:06.290Z,24.78
2022-08-09T15:54:19.418Z,24.82
2022-08-09T15:56:29.309Z,24.50
2022-08-09T15:58:32.529Z,24.52
2022-08-09T16:00:34.289Z,24.61
2022-08-09T16:02:36.623Z,24.38
2022-08-09T16:04:37.923Z,24.18
2022-08-09T16:06:39.295Z,24.07
2022-08-09T16:08:49.735Z,24.05
2022-08-09T16:10:55.682Z,24.05
2022-08-09T16:12:58.067Z,24.06
2022-08-09T16:14:59.627Z,24.40
2022-08-09T16:17:01.020Z,24.65
2022-08-09T16:19:02.319Z,24.88
2022-08-09T16:21:04.693Z,24.99
2022-08-09T16:23:07.568Z,24.90
2022-08-09T16:25:08.921Z,24.81
2022-08-09T16:27:11.928Z,24.97
2022-08-09T16:29:14.642Z,24.98
2022-08-09T16:31:16.422Z,25.01
2022-08-09T16:33:17.835Z,24.99
2022-08-09T16:35:55.719Z,24.71
2022-08-09T16:37:54.839Z,24.69
2022-08-09T16:40:05.584Z,24.72
2022-08-09T16:42:07.409Z,24.75
2022-08-09T16:44:09.188Z,24.71
2022-08-09T16:46:12.435Z,24.86
2022-08-09T16:48:40.194Z,24.69
2022-08-09T16:50:38.605Z,24.63
2022-08-09T16:52:40.327Z,24.71
2022-08-09T16:54:44.442Z,24.81
2022-08-09T16:56:49.531Z,25.04
2022-08-09T16:58:51.558Z,25.14
2022-08-09T17:00:52.955Z,24.98
2022-08-09T17:02:57.348Z,24.90
2022-08-09T17:04:59.431Z,24.87
2022-08-09T17:08:45.641Z,24.85
2022-08-09T17:09:46.222Z,24.85
2022-08-09T17:11:44.377Z,25.04
2022-08-09T17:14:00.953Z,24.96
2022-08-09T17:16:02.813Z,24.93
2022-08-09T17:18:04.134Z,24.90
2022-08-09T17:20:33.218Z,24.87
2022-08-09T17:22:30.899Z,24.91
2022-08-09T17:24:32.698Z,24.04
2022-08-09T17:26:38.230Z,24.57
2022-08-09T17:28:39.884Z,24.40
2022-08-09T17:30:41.251Z,24.26
2022-08-09T17:32:49.008Z,24.47
2022-08-09T17:35:01.029Z,24.64
2022-08-09T17:37:19.253Z,25.15
2022-08-09T17:39:25.094Z,25.51
2022-08-09T17:41:38.466Z,25.14
2022-08-09T17:43:40.998Z,25.04
2022-08-09T17:46:02.891Z,24.96
2022-08-09T17:48:04.919Z,24.93
2022-08-09T17:50:13.929Z,24.93
2022-08-09T17:52:22.117Z,24.95
2022-08-09T17:54:28.096Z,24.92
2022-08-09T17:56:35.623Z,24.97
2022-08-09T17:58:37.485Z,24.99
2022-08-09T18:00:46.416Z,24.78
2022-08-09T18:02:57.967Z,24.69
2022-08-09T18:04:59.974Z,24.84
2022-08-09T18:07:04.445Z,24.90
2022-08-09T18:09:06.226Z,24.93
2022-08-09T18:11:07.758Z,24.20
2022-08-09T18:13:53.636Z,25.01
2022-08-09T18:16:04.993Z,25.05
2022-08-09T18:18:04.036Z,25.11
2022-08-09T18:20:55.738Z,25.07
2022-08-09T18:22:34.015Z,25.06
2022-08-09T18:24:35.763Z,24.66
2022-08-09T18:26:38.022Z,24.46
2022-08-09T18:30:42.120Z,24.40
2022-08-09T18:31:00.779Z,24.32
2022-08-09T18:33:02.094Z,24.28
2022-08-09T18:35:14.048Z,24.27
2022-08-09T18:37:47.312Z,24.24
2022-08-09T18:39:45.404Z,24.21
2022-08-09T18:41:52.912Z,24.22
2022-08-09T18:43:55.408Z,24.24
2022-08-09T18:46:50.786Z,24.57
2022-08-09T18:48:18.076Z,24.84
2022-08-09T18:50:21.694Z,24.84
2022-08-09T18:52:35.212Z,24.82
2022-08-09T18:54:36.974Z,24.89
2022-08-09T18:56:38.277Z,24.90
2022-08-09T18:58:39.591Z,24.99
2022-08-09T19:00:40.961Z,25.01
2022-08-09T19:02:44.194Z,25.03
2022-08-09T19:04:48.082Z,25.04
2022-08-09T19:07:05.389Z,25.05
2022-08-09T19:09:06.946Z,25.34
2022-08-09T19:11:08.364Z,24.87
2022-08-09T19:13:23.539Z,24.61
2022-08-09T19:15:35.241Z,24.43
2022-08-09T19:17:39.743Z,24.35
2022-08-09T19:19:58.655Z,24.30
2022-08-09T19:22:04.704Z,23.42
2022-08-09T19:24:37.210Z,24.24
2022-08-09T19:26:32.416Z,24.59
2022-08-09T19:28:38.115Z,24.88
2022-08-09T19:30:39.981Z,24.93
2022-08-09T19:32:45.662Z,25.08
2022-08-09T19:34:53.877Z,25.04
2022-08-09T19:36:55.489Z,25.02
2022-08-09T19:38:58.290Z,25.02
2022-08-09T19:41:02.684Z,25.02
2022-08-09T19:43:05.352Z,25.08
2022-08-09T19:45:11.431Z,25.06
2022-08-09T19:47:14.394Z,25.21
2022-08-09T19:50:09.513Z,25.15
2022-08-09T19:51:43.454Z,25.13
2022-08-09T19:53:56.542Z,25.11
2022-08-09T19:56:03.307Z,25.11
2022-08-09T19:58:16.127Z,25.31
2022-08-09T20:00:18.297Z,25.21
2022-08-09T20:04:11.215Z,25.16
2022-08-09T20:04:52.858Z,25.16
2022-08-09T20:06:56.418Z,25.12
2022-08-09T20:08:59.461Z,25.13
2022-08-09T20:11:03.974Z,25.03
2022-08-09T20:13:05.734Z,25.04
2022-08-09T20:16:32.009Z,25.06
2022-08-09T20:17:30.928Z,24.88
2022-08-09T20:19:53.736Z,24.53
2022-08-09T20:22:00.064Z,24.32
2022-08-09T20:24:01.803Z,24.24
2022-08-09T20:26:03.216Z,24.30
2022-08-09T20:28:08.178Z,24.31
2022-08-09T20:30:14.274Z,24.32
2022-08-09T20:32:33.270Z,24.29
2022-08-09T20:34:35.425Z,24.27
2022-08-09T20:36:36.744Z,24.24
2022-08-09T20:39:02.581Z,24.23
2022-08-09T20:41:00.228Z,24.19
2022-08-09T20:43:19.012Z,24.17
2022-08-09T20:46:00.402Z,24.16
2022-08-09T20:47:47.911Z,24.13
2022-08-09T20:49:49.918Z,24.10
2022-08-09T20:51:51.927Z,24.09
2022-08-09T20:53:55.714Z,24.07
2022-08-09T20:56:00.663Z,24.05
2022-08-09T20:58:08.361Z,24.03
2022-08-09T21:00:31.148Z,24.02
2022-08-09T21:02:33.491Z,24.00
2022-08-09T21:05:57.855Z,23.99
2022-08-09T21:06:56.272Z,23.96
2022-08-09T21:08:57.678Z,23.95
2022-08-09T21:10:59.983Z,23.95
2022-08-09T21:13:01.588Z,23.96
2022-08-09T21:15:02.945Z,23.96
2022-08-09T21:18:21.909Z,23.95
2022-08-09T21:20:18.551Z,23.95
2022-08-09T21:21:56.716Z,23.94
2022-08-09T21:24:02.300Z,23.92
2022-08-09T21:26:03.847Z,23.93
2022-08-09T21:28:07.755Z,23.93
2022-08-09T21:30:13.589Z,23.92
2022-08-09T21:32:19.977Z,23.91
2022-08-09T21:34:34.814Z,23.92
2022-08-09T21:36:36.207Z,23.93
2022-08-09T21:38:37.506Z,23.92
2022-08-09T21:40:40.870Z,23.91
2022-08-09T21:42:42.292Z,23.92
2022-08-09T21:44:46.014Z,23.96
2022-08-09T21:46:47.399Z,23.94
2022-08-09T21:48:49.561Z,23.91
2022-08-09T21:50:51.345Z,23.91
2022-08-09T21:52:52.917Z,23.90
2022-08-09T21:55:03.465Z,23.89
2022-08-09T21:57:06.024Z,23.86
2022-08-09T21:59:26.659Z,23.88
2022-08-09T22:02:00.759Z,23.89
2022-08-09T22:04:02.690Z,23.89
2022-08-09T22:06:03.997Z,23.88
2022-08-09T22:08:05.385Z,23.89
2022-08-09T22:10:06.683Z,23.84
2022-08-09T22:12:30.594Z,23.85
2022-08-09T22:14:29.355Z,23.92
2022-08-09T22:16:37.227Z,23.94
2022-08-09T22:18:54.356Z,23.95
2022-08-09T22:20:56.335Z,23.93
2022-08-09T22:22:57.631Z,23.92
2022-08-09T22:26:08.430Z,23.92
2022-08-09T22:27:20.232Z,23.91
2022-08-09T22:29:27.037Z,23.91
2022-08-09T22:31:33.774Z,23.91
2022-08-09T22:33:49.201Z,23.91
2022-08-09T22:36:02.082Z,23.90
2022-08-09T22:38:07.527Z,23.91
2022-08-09T22:40:09.332Z,23.91
2022-08-09T22:42:22.074Z,23.91
2022-08-09T22:44:24.799Z,23.90
2022-08-09T22:48:14.952Z,23.90
2022-08-09T22:48:52.575Z,23.90
2022-08-09T22:50:54.778Z,23.89
2022-08-09T22:52:57.886Z,23.89
2022-08-09T22:54:59.950Z,23.89
2022-08-09T22:57:01.342Z,23.88
2022-08-09T22:59:05.808Z,23.87
2022-08-09T23:01:24.309Z,23.87
2022-08-09T23:04:02.281Z,23.87
2022-08-09T23:05:47.011Z,23.89
2022-08-09T23:08:22.916Z,23.91
2022-08-09T23:10:28.637Z,23.89
2022-08-09T23:12:29.942Z,23.90
2022-08-09T23:14:41.301Z,23.88
2022-08-09T23:16:44.004Z,23.87
2022-08-09T23:18:45.366Z,23.85
2022-08-09T23:20:46.703Z,23.85
2022-08-09T23:22:48.005Z,23.87
2022-08-09T23:24:49.303Z,23.86
2022-08-09T23:26:50.632Z,23.84
2022-08-09T23:28:51.930Z,23.84
2022-08-09T23:30:53.251Z,23.83
2022-08-09T23:32:54.635Z,23.83
2022-08-09T23:34:55.943Z,23.83
2022-08-09T23:36:57.246Z,23.84
2022-08-09T23:38:58.627Z,23.83
2022-08-09T23:40:59.932Z,23.84
2022-08-09T23:43:01.236Z,23.82
2022-08-09T23:45:04.086Z,23.82
2022-08-09T23:47:08.535Z,23.79
2022-08-09T23:49:11.371Z,23.77
2022-08-09T23:51:12.758Z,23.76
2022-08-09T23:53:14.135Z,23.78
2022-08-09T23:55:17.884Z,23.78
2022-08-09T23:57:19.387Z,23.75
2022-08-09T23:59:23.423Z,23.73
